sensor_id;sensor_type;location;lat;lon;timestamp;P1;durP1;ratioP1;P2;durP2;ratioP2
12302;SDS011;6214;48.012;7.862;2022-09-02T00:00:54;4.90;;;2.40;;
12302;SDS011;6214;48.012;7.862;2022-09-02T00:03:26;4.90;;;2.30;;
12302;SDS011;6214;48.012;7.862;2022-09-02T00:05:55;4.10;;;2.10;;
12302;SDS011;6214;48.012;7.862;2022-09-02T00:08:22;5.20;;;2.40;;
12302;SDS011;6214;48.012;7.862;2022-09-02T00:10:49;4.50;;;2.10;;
12302;SDS011;6214;48.012;7.862;2022-09-02T00:13:17;5.70;;;2.33;;
12302;SDS011;6214;48.012;7.862;2022-09-02T00:15:46;4.78;;;2.20;;
12302;SDS011;6214;48.012;7.862;2022-09-02T00:18:14;4.70;;;2.60;;
12302;SDS011;6214;48.012;7.862;2022-09-02T00:20:44;5.03;;;2.15;;
12302;SDS011;6214;48.012;7.862;2022-09-02T00:23:12;4.60;;;2.50;;
12302;SDS011;6214;48.012;7.862;2022-09-02T00:25:42;4.75;;;2.30;;
12302;SDS011;6214;48.012;7.862;2022-09-02T00:28:10;4.60;;;2.67;;
12302;SDS011;6214;48.012;7.862;2022-09-02T00:30:40;4.63;;;2.40;;
12302;SDS011;6214;48.012;7.862;2022-09-02T00:33:09;4.43;;;2.33;;
12302;SDS011;6214;48.012;7.862;2022-09-02T00:35:37;4.95;;;2.20;;
12302;SDS011;6214;48.012;7.862;2022-09-02T00:38:04;5.20;;;2.30;;
12302;SDS011;6214;48.012;7.862;2022-09-02T00:40:31;5.28;;;2.10;;
12302;SDS011;6214;48.012;7.862;2022-09-02T00:43:00;4.60;;;2.20;;
12302;SDS011;6214;48.012;7.862;2022-09-02T00:45:32;4.32;;;2.00;;
12302;SDS011;6214;48.012;7.862;2022-09-02T00:47:59;4.97;;;2.10;;
12302;SDS011;6214;48.012;7.862;2022-09-02T00:50:27;4.30;;;2.00;;
12302;SDS011;6214;48.012;7.862;2022-09-02T00:53:15;4.80;;;2.20;;
12302;SDS011;6214;48.012;7.862;2022-09-02T00:55:44;4.43;;;2.20;;
12302;SDS011;6214;48.012;7.862;2022-09-02T00:58:15;5.15;;;2.47;;
12302;SDS011;6214;48.012;7.862;2022-09-02T01:00:50;4.55;;;2.42;;
12302;SDS011;6214;48.012;7.862;2022-09-02T01:03:24;4.28;;;2.05;;
12302;SDS011;6214;48.012;7.862;2022-09-02T01:05:53;4.90;;;2.40;;
12302;SDS011;6214;48.012;7.862;2022-09-02T01:08:25;4.80;;;2.50;;
12302;SDS011;6214;48.012;7.862;2022-09-02T01:10:55;5.57;;;2.60;;
12302;SDS011;6214;48.012;7.862;2022-09-02T01:13:24;4.25;;;2.20;;
12302;SDS011;6214;48.012;7.862;2022-09-02T01:15:55;4.90;;;2.70;;
12302;SDS011;6214;48.012;7.862;2022-09-02T01:18:44;5.40;;;2.50;;
12302;SDS011;6214;48.012;7.862;2022-09-02T01:21:14;5.32;;;2.40;;
12302;SDS011;6214;48.012;7.862;2022-09-02T01:23:41;5.55;;;2.20;;
12302;SDS011;6214;48.012;7.862;2022-09-02T01:26:08;5.75;;;2.28;;
12302;SDS011;6214;48.012;7.862;2022-09-02T01:28:36;4.63;;;2.30;;
12302;SDS011;6214;48.012;7.862;2022-09-02T01:31:03;4.80;;;2.50;;
12302;SDS011;6214;48.012;7.862;2022-09-02T01:33:30;4.53;;;2.20;;
12302;SDS011;6214;48.012;7.862;2022-09-02T01:35:57;4.90;;;2.20;;
12302;SDS011;6214;48.012;7.862;2022-09-02T01:38:25;5.30;;;2.58;;
12302;SDS011;6214;48.012;7.862;2022-09-02T01:40:52;4.47;;;2.40;;
12302;SDS011;6214;48.012;7.862;2022-09-02T01:43:21;5.13;;;2.35;;
12302;SDS011;6214;48.012;7.862;2022-09-02T01:45:51;5.07;;;2.33;;
12302;SDS011;6214;48.012;7.862;2022-09-02T01:48:20;4.32;;;2.25;;
12302;SDS011;6214;48.012;7.862;2022-09-02T01:50:49;5.35;;;2.60;;
12302;SDS011;6214;48.012;7.862;2022-09-02T01:53:22;4.30;;;2.03;;
12302;SDS011;6214;48.012;7.862;2022-09-02T01:55:49;4.70;;;2.40;;
12302;SDS011;6214;48.012;7.862;2022-09-02T01:58:16;4.97;;;2.20;;
12302;SDS011;6214;48.012;7.862;2022-09-02T02:00:45;4.78;;;2.30;;
12302;SDS011;6214;48.012;7.862;2022-09-02T02:03:13;4.70;;;2.50;;
12302;SDS011;6214;48.012;7.862;2022-09-02T02:05:40;4.70;;;2.28;;
12302;SDS011;6214;48.012;7.862;2022-09-02T02:08:08;4.60;;;2.33;;
12302;SDS011;6214;48.012;7.862;2022-09-02T02:10:35;6.00;;;2.38;;
12302;SDS011;6214;48.012;7.862;2022-09-02T02:13:02;5.18;;;2.30;;
12302;SDS011;6214;48.012;7.862;2022-09-02T02:15:29;4.85;;;2.40;;
12302;SDS011;6214;48.012;7.862;2022-09-02T02:17:55;4.22;;;2.20;;
12302;SDS011;6214;48.012;7.862;2022-09-02T02:20:22;4.90;;;2.47;;
12302;SDS011;6214;48.012;7.862;2022-09-02T02:22:49;4.30;;;2.20;;
12302;SDS011;6214;48.012;7.862;2022-09-02T02:25:17;4.40;;;2.10;;
12302;SDS011;6214;48.012;7.862;2022-09-02T02:27:44;4.95;;;2.60;;
12302;SDS011;6214;48.012;7.862;2022-09-02T02:30:13;4.40;;;2.20;;
12302;SDS011;6214;48.012;7.862;2022-09-02T02:32:42;4.10;;;2.10;;
12302;SDS011;6214;48.012;7.862;2022-09-02T02:35:15;5.00;;;2.50;;
12302;SDS011;6214;48.012;7.862;2022-09-02T02:37:44;4.50;;;2.00;;
12302;SDS011;6214;48.012;7.862;2022-09-02T02:40:15;5.82;;;2.33;;
12302;SDS011;6214;48.012;7.862;2022-09-02T02:42:45;4.60;;;2.22;;
12302;SDS011;6214;48.012;7.862;2022-09-02T02:45:12;4.60;;;2.28;;
12302;SDS011;6214;48.012;7.862;2022-09-02T02:47:41;5.60;;;2.40;;
12302;SDS011;6214;48.012;7.862;2022-09-02T02:50:12;4.40;;;2.23;;
12302;SDS011;6214;48.012;7.862;2022-09-02T02:52:41;4.90;;;2.20;;
12302;SDS011;6214;48.012;7.862;2022-09-02T02:55:10;4.20;;;2.10;;
12302;SDS011;6214;48.012;7.862;2022-09-02T02:57:38;4.93;;;2.10;;
12302;SDS011;6214;48.012;7.862;2022-09-02T03:00:16;4.20;;;2.20;;
12302;SDS011;6214;48.012;7.862;2022-09-02T03:02:51;4.45;;;2.20;;
12302;SDS011;6214;48.012;7.862;2022-09-02T03:05:25;4.47;;;2.40;;
12302;SDS011;6214;48.012;7.862;2022-09-02T03:07:52;5.10;;;2.20;;
12302;SDS011;6214;48.012;7.862;2022-09-02T03:10:20;5.50;;;2.20;;
12302;SDS011;6214;48.012;7.862;2022-09-02T03:12:48;4.30;;;1.97;;
12302;SDS011;6214;48.012;7.862;2022-09-02T03:15:16;4.35;;;1.90;;
12302;SDS011;6214;48.012;7.862;2022-09-02T03:17:45;4.50;;;2.38;;
12302;SDS011;6214;48.012;7.862;2022-09-02T03:20:13;4.80;;;2.15;;
12302;SDS011;6214;48.012;7.862;2022-09-02T03:22:42;5.90;;;2.10;;
12302;SDS011;6214;48.012;7.862;2022-09-02T03:25:10;4.95;;;2.10;;
12302;SDS011;6214;48.012;7.862;2022-09-02T03:27:40;4.80;;;2.00;;
12302;SDS011;6214;48.012;7.862;2022-09-02T03:30:13;4.50;;;2.20;;
12302;SDS011;6214;48.012;7.862;2022-09-02T03:32:42;5.80;;;2.40;;
12302;SDS011;6214;48.012;7.862;2022-09-02T03:35:12;5.55;;;2.13;;
12302;SDS011;6214;48.012;7.862;2022-09-02T03:37:41;6.65;;;2.00;;
12302;SDS011;6214;48.012;7.862;2022-09-02T03:40:10;4.90;;;2.00;;
12302;SDS011;6214;48.012;7.862;2022-09-02T03:42:39;4.20;;;2.13;;
12302;SDS011;6214;48.012;7.862;2022-09-02T03:45:08;5.20;;;2.30;;
12302;SDS011;6214;48.012;7.862;2022-09-02T03:47:36;4.43;;;2.10;;
12302;SDS011;6214;48.012;7.862;2022-09-02T03:50:09;4.83;;;2.10;;
12302;SDS011;6214;48.012;7.862;2022-09-02T03:52:36;4.65;;;2.30;;
12302;SDS011;6214;48.012;7.862;2022-09-02T03:55:04;5.10;;;2.30;;
12302;SDS011;6214;48.012;7.862;2022-09-02T03:57:33;6.28;;;2.33;;
12302;SDS011;6214;48.012;7.862;2022-09-02T04:00:03;4.50;;;2.20;;
12302;SDS011;6214;48.012;7.862;2022-09-02T04:02:33;4.30;;;2.20;;
12302;SDS011;6214;48.012;7.862;2022-09-02T04:05:00;4.60;;;2.00;;
12302;SDS011;6214;48.012;7.862;2022-09-02T04:07:28;5.20;;;2.37;;
12302;SDS011;6214;48.012;7.862;2022-09-02T04:09:54;4.82;;;2.40;;
12302;SDS011;6214;48.012;7.862;2022-09-02T04:12:21;4.60;;;2.20;;
12302;SDS011;6214;48.012;7.862;2022-09-02T04:14:57;6.57;;;2.25;;
12302;SDS011;6214;48.012;7.862;2022-09-02T04:21:37;5.30;;;2.15;;
12302;SDS011;6214;48.012;7.862;2022-09-02T04:24:06;5.15;;;2.10;;
12302;SDS011;6214;48.012;7.862;2022-09-02T04:26:35;5.22;;;2.20;;
12302;SDS011;6214;48.012;7.862;2022-09-02T04:29:10;5.18;;;2.25;;
12302;SDS011;6214;48.012;7.862;2022-09-02T04:31:37;6.30;;;2.60;;
12302;SDS011;6214;48.012;7.862;2022-09-02T04:34:04;4.18;;;2.03;;
12302;SDS011;6214;48.012;7.862;2022-09-02T04:36:32;6.30;;;2.20;;
12302;SDS011;6214;48.012;7.862;2022-09-02T04:38:59;4.80;;;2.20;;
12302;SDS011;6214;48.012;7.862;2022-09-02T04:41:27;4.45;;;2.30;;
12302;SDS011;6214;48.012;7.862;2022-09-02T04:43:56;5.20;;;2.33;;
12302;SDS011;6214;48.012;7.862;2022-09-02T04:46:24;5.22;;;2.30;;
12302;SDS011;6214;48.012;7.862;2022-09-02T04:49:00;5.60;;;2.60;;
12302;SDS011;6214;48.012;7.862;2022-09-02T04:51:28;9.73;;;2.55;;
12302;SDS011;6214;48.012;7.862;2022-09-02T04:53:55;5.50;;;2.20;;
12302;SDS011;6214;48.012;7.862;2022-09-02T04:56:24;5.60;;;2.00;;
12302;SDS011;6214;48.012;7.862;2022-09-02T04:58:53;4.82;;;2.20;;
12302;SDS011;6214;48.012;7.862;2022-09-02T05:01:22;5.60;;;1.90;;
12302;SDS011;6214;48.012;7.862;2022-09-02T05:03:53;5.68;;;2.30;;
12302;SDS011;6214;48.012;7.862;2022-09-02T05:06:22;4.30;;;2.10;;
12302;SDS011;6214;48.012;7.862;2022-09-02T05:08:53;4.28;;;1.80;;
12302;SDS011;6214;48.012;7.862;2022-09-02T05:11:22;4.50;;;2.00;;
12302;SDS011;6214;48.012;7.862;2022-09-02T05:13:54;3.92;;;1.77;;
12302;SDS011;6214;48.012;7.862;2022-09-02T05:16:25;4.97;;;1.90;;
12302;SDS011;6214;48.012;7.862;2022-09-02T05:18:54;5.65;;;1.83;;
12302;SDS011;6214;48.012;7.862;2022-09-02T05:21:23;4.60;;;2.20;;
12302;SDS011;6214;48.012;7.862;2022-09-02T05:23:51;5.38;;;2.10;;
12302;SDS011;6214;48.012;7.862;2022-09-02T05:26:20;4.65;;;2.20;;
12302;SDS011;6214;48.012;7.862;2022-09-02T05:29:12;4.85;;;1.70;;
12302;SDS011;6214;48.012;7.862;2022-09-02T05:32:29;4.60;;;2.10;;
12302;SDS011;6214;48.012;7.862;2022-09-02T05:35:03;4.10;;;2.00;;
12302;SDS011;6214;48.012;7.862;2022-09-02T05:37:30;4.55;;;2.05;;
12302;SDS011;6214;48.012;7.862;2022-09-02T05:39:58;5.30;;;2.20;;
12302;SDS011;6214;48.012;7.862;2022-09-02T05:42:26;4.93;;;2.00;;
12302;SDS011;6214;48.012;7.862;2022-09-02T05:44:54;4.20;;;1.88;;
12302;SDS011;6214;48.012;7.862;2022-09-02T05:47:22;5.13;;;2.17;;
12302;SDS011;6214;48.012;7.862;2022-09-02T05:49:50;4.60;;;2.08;;
12302;SDS011;6214;48.012;7.862;2022-09-02T05:52:17;4.45;;;1.90;;
12302;SDS011;6214;48.012;7.862;2022-09-02T05:54:44;4.15;;;2.20;;
12302;SDS011;6214;48.012;7.862;2022-09-02T05:57:12;5.78;;;1.90;;
12302;SDS011;6214;48.012;7.862;2022-09-02T05:59:41;4.40;;;2.08;;
12302;SDS011;6214;48.012;7.862;2022-09-02T06:02:11;4.00;;;1.80;;
12302;SDS011;6214;48.012;7.862;2022-09-02T06:04:40;4.70;;;1.92;;
12302;SDS011;6214;48.012;7.862;2022-09-02T06:07:08;5.10;;;2.00;;
12302;SDS011;6214;48.012;7.862;2022-09-02T06:09:39;4.40;;;2.30;;
12302;SDS011;6214;48.012;7.862;2022-09-02T06:12:07;4.18;;;1.98;;
12302;SDS011;6214;48.012;7.862;2022-09-02T06:14:34;4.50;;;1.90;;
12302;SDS011;6214;48.012;7.862;2022-09-02T06:17:01;5.15;;;2.03;;
12302;SDS011;6214;48.012;7.862;2022-09-02T06:19:30;5.15;;;2.10;;
12302;SDS011;6214;48.012;7.862;2022-09-02T06:21:58;3.90;;;1.90;;
12302;SDS011;6214;48.012;7.862;2022-09-02T06:24:26;6.70;;;2.30;;
12302;SDS011;6214;48.012;7.862;2022-09-02T06:26:55;4.50;;;2.00;;
12302;SDS011;6214;48.012;7.862;2022-09-02T06:29:23;4.38;;;1.80;;
12302;SDS011;6214;48.012;7.862;2022-09-02T06:31:51;4.93;;;2.33;;
12302;SDS011;6214;48.012;7.862;2022-09-02T06:34:20;4.10;;;1.90;;
12302;SDS011;6214;48.012;7.862;2022-09-02T06:36:49;5.60;;;2.50;;
12302;SDS011;6214;48.012;7.862;2022-09-02T06:39:17;4.40;;;2.20;;
12302;SDS011;6214;48.012;7.862;2022-09-02T06:41:45;5.68;;;3.03;;
12302;SDS011;6214;48.012;7.862;2022-09-02T06:44:13;5.75;;;2.65;;
12302;SDS011;6214;48.012;7.862;2022-09-02T06:46:43;6.32;;;3.00;;
12302;SDS011;6214;48.012;7.862;2022-09-02T06:49:13;5.40;;;3.00;;
12302;SDS011;6214;48.012;7.862;2022-09-02T06:51:42;4.60;;;2.90;;
12302;SDS011;6214;48.012;7.862;2022-09-02T06:54:13;7.53;;;2.80;;
12302;SDS011;6214;48.012;7.862;2022-09-02T06:56:42;5.40;;;2.60;;
12302;SDS011;6214;48.012;7.862;2022-09-02T06:59:14;5.28;;;2.80;;
12302;SDS011;6214;48.012;7.862;2022-09-02T07:01:45;5.73;;;2.80;;
12302;SDS011;6214;48.012;7.862;2022-09-02T07:04:14;5.50;;;2.40;;
12302;SDS011;6214;48.012;7.862;2022-09-02T07:06:59;6.25;;;2.70;;
12302;SDS011;6214;48.012;7.862;2022-09-02T07:09:29;5.95;;;3.00;;
12302;SDS011;6214;48.012;7.862;2022-09-02T07:12:00;6.10;;;2.80;;
12302;SDS011;6214;48.012;7.862;2022-09-02T07:14:31;5.80;;;2.70;;
12302;SDS011;6214;48.012;7.862;2022-09-02T07:17:06;6.90;;;2.60;;
12302;SDS011;6214;48.012;7.862;2022-09-02T07:19:34;6.78;;;2.40;;
12302;SDS011;6214;48.012;7.862;2022-09-02T07:22:02;4.78;;;2.30;;
12302;SDS011;6214;48.012;7.862;2022-09-02T07:24:30;5.80;;;2.10;;
12302;SDS011;6214;48.012;7.862;2022-09-02T07:26:57;5.10;;;2.17;;
12302;SDS011;6214;48.012;7.862;2022-09-02T07:29:24;5.43;;;2.03;;
12302;SDS011;6214;48.012;7.862;2022-09-02T07:31:51;5.35;;;2.10;;
12302;SDS011;6214;48.012;7.862;2022-09-02T07:34:18;5.05;;;1.90;;
12302;SDS011;6214;48.012;7.862;2022-09-02T07:36:46;4.30;;;1.98;;
12302;SDS011;6214;48.012;7.862;2022-09-02T07:39:14;4.50;;;1.60;;
12302;SDS011;6214;48.012;7.862;2022-09-02T07:41:44;4.60;;;1.90;;
12302;SDS011;6214;48.012;7.862;2022-09-02T07:44:15;4.88;;;2.00;;
12302;SDS011;6214;48.012;7.862;2022-09-02T07:46:44;6.03;;;1.80;;
12302;SDS011;6214;48.012;7.862;2022-09-02T07:49:12;4.57;;;1.98;;
12302;SDS011;6214;48.012;7.862;2022-09-02T07:51:41;5.60;;;2.30;;
12302;SDS011;6214;48.012;7.862;2022-09-02T07:54:10;5.68;;;2.10;;
12302;SDS011;6214;48.012;7.862;2022-09-02T07:56:38;4.30;;;2.10;;
12302;SDS011;6214;48.012;7.862;2022-09-02T07:59:06;4.73;;;2.30;;
12302;SDS011;6214;48.012;7.862;2022-09-02T08:01:33;5.30;;;2.40;;
12302;SDS011;6214;48.012;7.862;2022-09-02T08:04:01;5.10;;;2.35;;
12302;SDS011;6214;48.012;7.862;2022-09-02T08:06:31;5.10;;;2.80;;
12302;SDS011;6214;48.012;7.862;2022-09-02T08:09:03;5.20;;;2.50;;
12302;SDS011;6214;48.012;7.862;2022-09-02T08:11:32;4.93;;;2.20;;
12302;SDS011;6214;48.012;7.862;2022-09-02T08:14:02;5.30;;;2.10;;
12302;SDS011;6214;48.012;7.862;2022-09-02T08:16:29;4.90;;;2.42;;
12302;SDS011;6214;48.012;7.862;2022-09-02T08:18:56;5.53;;;2.10;;
12302;SDS011;6214;48.012;7.862;2022-09-02T08:21:23;4.90;;;2.20;;
12302;SDS011;6214;48.012;7.862;2022-09-02T08:23:53;5.50;;;2.20;;
12302;SDS011;6214;48.012;7.862;2022-09-02T08:26:20;6.30;;;1.90;;
12302;SDS011;6214;48.012;7.862;2022-09-02T08:28:48;4.60;;;2.00;;
12302;SDS011;6214;48.012;7.862;2022-09-02T08:31:15;4.68;;;2.05;;
12302;SDS011;6214;48.012;7.862;2022-09-02T08:33:42;4.30;;;2.00;;
12302;SDS011;6214;48.012;7.862;2022-09-02T08:36:10;4.80;;;2.10;;
12302;SDS011;6214;48.012;7.862;2022-09-02T08:38:40;5.53;;;2.35;;
12302;SDS011;6214;48.012;7.862;2022-09-02T08:44:14;4.60;;;2.30;;
12302;SDS011;6214;48.012;7.862;2022-09-02T08:46:47;5.20;;;2.40;;
12302;SDS011;6214;48.012;7.862;2022-09-02T08:49:27;5.38;;;1.90;;
12302;SDS011;6214;48.012;7.862;2022-09-02T08:52:03;4.80;;;2.00;;
12302;SDS011;6214;48.012;7.862;2022-09-02T08:54:42;4.20;;;1.90;;
12302;SDS011;6214;48.012;7.862;2022-09-02T08:57:24;4.15;;;1.90;;
12302;SDS011;6214;48.012;7.862;2022-09-02T08:59:56;4.30;;;2.20;;
12302;SDS011;6214;48.012;7.862;2022-09-02T09:02:39;4.85;;;2.03;;
12302;SDS011;6214;48.012;7.862;2022-09-02T09:08:22;7.93;;;2.20;;
12302;SDS011;6214;48.012;7.862;2022-09-02T09:11:04;4.00;;;1.80;;
12302;SDS011;6214;48.012;7.862;2022-09-02T09:16:52;4.05;;;1.80;;
12302;SDS011;6214;48.012;7.862;2022-09-02T09:21:50;5.17;;;2.00;;
12302;SDS011;6214;48.012;7.862;2022-09-02T09:24:40;4.40;;;1.98;;
12302;SDS011;6214;48.012;7.862;2022-09-02T09:27:11;4.28;;;2.00;;
12302;SDS011;6214;48.012;7.862;2022-09-02T09:29:40;5.45;;;2.00;;
12302;SDS011;6214;48.012;7.862;2022-09-02T09:32:13;4.70;;;1.70;;
12302;SDS011;6214;48.012;7.862;2022-09-02T09:35:02;5.80;;;1.98;;
12302;SDS011;6214;48.012;7.862;2022-09-02T09:42:46;4.68;;;2.00;;
12302;SDS011;6214;48.012;7.862;2022-09-02T09:50:46;4.10;;;1.75;;
12302;SDS011;6214;48.012;7.862;2022-09-02T09:53:25;4.20;;;1.80;;
12302;SDS011;6214;48.012;7.862;2022-09-02T09:56:01;4.80;;;1.80;;
12302;SDS011;6214;48.012;7.862;2022-09-02T10:06:25;4.22;;;1.60;;
12302;SDS011;6214;48.012;7.862;2022-09-02T10:09:03;4.57;;;1.80;;
12302;SDS011;6214;48.012;7.862;2022-09-02T10:11:31;4.90;;;1.80;;
12302;SDS011;6214;48.012;7.862;2022-09-02T10:14:01;4.30;;;1.75;;
12302;SDS011;6214;48.012;7.862;2022-09-02T10:28:03;4.40;;;1.70;;
12302;SDS011;6214;48.012;7.862;2022-09-02T10:36:43;4.88;;;1.70;;
12302;SDS011;6214;48.012;7.862;2022-09-02T10:42:42;3.90;;;1.60;;
12302;SDS011;6214;48.012;7.862;2022-09-02T10:51:03;4.55;;;1.58;;
12302;SDS011;6214;48.012;7.862;2022-09-02T10:56:11;3.90;;;1.60;;
12302;SDS011;6214;48.012;7.862;2022-09-02T10:58:44;4.20;;;1.90;;
12302;SDS011;6214;48.012;7.862;2022-09-02T11:01:32;4.50;;;1.60;;
12302;SDS011;6214;48.012;7.862;2022-09-02T11:04:08;4.35;;;1.60;;
12302;SDS011;6214;48.012;7.862;2022-09-02T11:06:51;4.00;;;1.70;;
12302;SDS011;6214;48.012;7.862;2022-09-02T11:12:08;3.70;;;1.50;;
12302;SDS011;6214;48.012;7.862;2022-09-02T11:20:07;4.55;;;1.58;;
12302;SDS011;6214;48.012;7.862;2022-09-02T11:25:46;5.00;;;1.50;;
12302;SDS011;6214;48.012;7.862;2022-09-02T11:31:05;4.20;;;1.80;;
12302;SDS011;6214;48.012;7.862;2022-09-02T11:36:35;4.30;;;1.70;;
12302;SDS011;6214;48.012;7.862;2022-09-02T11:42:19;4.10;;;1.60;;
12302;SDS011;6214;48.012;7.862;2022-09-02T11:55:35;4.50;;;1.83;;
12302;SDS011;6214;48.012;7.862;2022-09-02T11:58:28;4.38;;;1.80;;
12302;SDS011;6214;48.012;7.862;2022-09-02T12:03:25;4.70;;;1.80;;
12302;SDS011;6214;48.012;7.862;2022-09-02T12:06:15;3.80;;;1.52;;
12302;SDS011;6214;48.012;7.862;2022-09-02T12:14:05;5.30;;;1.60;;
12302;SDS011;6214;48.012;7.862;2022-09-02T12:16:41;4.10;;;1.70;;
12302;SDS011;6214;48.012;7.862;2022-09-02T12:29:56;5.03;;;1.80;;
12302;SDS011;6214;48.012;7.862;2022-09-02T12:40:38;4.78;;;1.70;;
12302;SDS011;6214;48.012;7.862;2022-09-02T12:43:23;4.30;;;1.50;;
12302;SDS011;6214;48.012;7.862;2022-09-02T12:45:57;4.38;;;1.60;;
12302;SDS011;6214;48.012;7.862;2022-09-02T12:48:37;4.20;;;1.60;;
12302;SDS011;6214;48.012;7.862;2022-09-02T12:51:09;3.97;;;1.80;;
12302;SDS011;6214;48.012;7.862;2022-09-02T12:58:50;4.90;;;1.80;;
12302;SDS011;6214;48.012;7.862;2022-09-02T13:01:24;4.20;;;1.75;;
12302;SDS011;6214;48.012;7.862;2022-09-02T13:04:03;4.38;;;2.00;;
12302;SDS011;6214;48.012;7.862;2022-09-02T13:06:52;4.40;;;1.70;;
12302;SDS011;6214;48.012;7.862;2022-09-02T13:10:01;4.13;;;1.70;;
12302;SDS011;6214;48.012;7.862;2022-09-02T13:31:59;4.50;;;1.50;;
12302;SDS011;6214;48.012;7.862;2022-09-02T13:34:41;4.10;;;1.77;;
12302;SDS011;6214;48.012;7.862;2022-09-02T13:39:59;4.70;;;1.85;;
12302;SDS011;6214;48.012;7.862;2022-09-02T13:42:31;4.13;;;1.73;;
12302;SDS011;6214;48.012;7.862;2022-09-02T13:45:11;4.70;;;1.60;;
12302;SDS011;6214;48.012;7.862;2022-09-02T13:47:44;3.72;;;1.70;;
12302;SDS011;6214;48.012;7.862;2022-09-02T13:50:29;4.68;;;1.70;;
12302;SDS011;6214;48.012;7.862;2022-09-02T13:52:57;4.00;;;1.80;;
12302;SDS011;6214;48.012;7.862;2022-09-02T13:55:47;4.70;;;1.70;;
12302;SDS011;6214;48.012;7.862;2022-09-02T13:58:59;4.22;;;1.70;;
12302;SDS011;6214;48.012;7.862;2022-09-02T14:04:03;4.90;;;2.08;;
12302;SDS011;6214;48.012;7.862;2022-09-02T14:06:39;4.97;;;1.80;;
12302;SDS011;6214;48.012;7.862;2022-09-02T14:09:25;4.30;;;1.60;;
12302;SDS011;6214;48.012;7.862;2022-09-02T14:11:57;4.20;;;1.77;;
12302;SDS011;6214;48.012;7.862;2022-09-02T14:14:25;4.18;;;1.73;;
12302;SDS011;6214;48.012;7.862;2022-09-02T14:17:15;4.10;;;1.70;;
12302;SDS011;6214;48.012;7.862;2022-09-02T14:19:47;3.90;;;1.60;;
12302;SDS011;6214;48.012;7.862;2022-09-02T14:22:27;4.20;;;1.80;;
12302;SDS011;6214;48.012;7.862;2022-09-02T14:24:55;4.30;;;1.92;;
12302;SDS011;6214;48.012;7.862;2022-09-02T14:27:22;4.78;;;1.80;;
12302;SDS011;6214;48.012;7.862;2022-09-02T14:29:54;4.10;;;1.80;;
12302;SDS011;6214;48.012;7.862;2022-09-02T14:32:24;4.20;;;1.70;;
12302;SDS011;6214;48.012;7.862;2022-09-02T14:37:49;4.20;;;1.70;;
12302;SDS011;6214;48.012;7.862;2022-09-02T14:40:29;4.15;;;1.65;;
12302;SDS011;6214;48.012;7.862;2022-09-02T14:43:03;4.30;;;1.77;;
12302;SDS011;6214;48.012;7.862;2022-09-02T14:45:42;4.15;;;1.80;;
12302;SDS011;6214;48.012;7.862;2022-09-02T14:48:22;3.90;;;1.60;;
12302;SDS011;6214;48.012;7.862;2022-09-02T14:51:01;4.20;;;1.77;;
12302;SDS011;6214;48.012;7.862;2022-09-02T14:53:30;4.60;;;1.80;;
12302;SDS011;6214;48.012;7.862;2022-09-02T14:55:59;4.50;;;1.98;;
12302;SDS011;6214;48.012;7.862;2022-09-02T14:58:27;4.32;;;1.90;;
12302;SDS011;6214;48.012;7.862;2022-09-02T15:00:55;4.80;;;1.60;;
12302;SDS011;6214;48.012;7.862;2022-09-02T15:03:24;4.30;;;1.60;;
12302;SDS011;6214;48.012;7.862;2022-09-02T15:05:52;6.60;;;1.80;;
12302;SDS011;6214;48.012;7.862;2022-09-02T15:08:20;4.20;;;1.60;;
12302;SDS011;6214;48.012;7.862;2022-09-02T15:10:47;4.75;;;1.70;;
12302;SDS011;6214;48.012;7.862;2022-09-02T15:13:20;4.75;;;2.00;;
12302;SDS011;6214;48.012;7.862;2022-09-02T15:15:55;4.35;;;2.08;;
12302;SDS011;6214;48.012;7.862;2022-09-02T15:18:23;5.47;;;1.90;;
12302;SDS011;6214;48.012;7.862;2022-09-02T15:20:50;4.68;;;1.90;;
12302;SDS011;6214;48.012;7.862;2022-09-02T15:23:17;4.20;;;2.28;;
12302;SDS011;6214;48.012;7.862;2022-09-02T15:25:45;5.00;;;2.08;;
12302;SDS011;6214;48.012;7.862;2022-09-02T15:28:12;4.68;;;2.10;;
12302;SDS011;6214;48.012;7.862;2022-09-02T15:30:39;4.10;;;1.98;;
12302;SDS011;6214;48.012;7.862;2022-09-02T15:33:07;4.20;;;1.80;;
12302;SDS011;6214;48.012;7.862;2022-09-02T15:35:42;4.03;;;1.90;;
12302;SDS011;6214;48.012;7.862;2022-09-02T15:38:11;3.90;;;1.80;;
12302;SDS011;6214;48.012;7.862;2022-09-02T15:40:38;5.10;;;1.85;;
12302;SDS011;6214;48.012;7.862;2022-09-02T15:43:05;4.27;;;2.00;;
12302;SDS011;6214;48.012;7.862;2022-09-02T15:45:32;5.13;;;2.38;;
12302;SDS011;6214;48.012;7.862;2022-09-02T15:48:00;4.97;;;2.50;;
12302;SDS011;6214;48.012;7.862;2022-09-02T15:50:30;4.60;;;1.90;;
12302;SDS011;6214;48.012;7.862;2022-09-02T15:52:59;3.85;;;1.70;;
12302;SDS011;6214;48.012;7.862;2022-09-02T15:55:26;5.10;;;1.80;;
12302;SDS011;6214;48.012;7.862;2022-09-02T15:57:57;4.30;;;2.00;;
12302;SDS011;6214;48.012;7.862;2022-09-02T16:00:25;4.53;;;2.00;;
12302;SDS011;6214;48.012;7.862;2022-09-02T16:02:54;4.00;;;1.90;;
12302;SDS011;6214;48.012;7.862;2022-09-02T16:05:22;4.85;;;2.10;;
12302;SDS011;6214;48.012;7.862;2022-09-02T16:07:50;4.10;;;1.70;;
12302;SDS011;6214;48.012;7.862;2022-09-02T16:10:20;4.10;;;1.60;;
12302;SDS011;6214;48.012;7.862;2022-09-02T16:12:47;4.63;;;1.60;;
12302;SDS011;6214;48.012;7.862;2022-09-02T16:15:14;4.40;;;1.20;;
12302;SDS011;6214;48.012;7.862;2022-09-02T16:17:41;4.90;;;1.40;;
12302;SDS011;6214;48.012;7.862;2022-09-02T16:20:08;5.20;;;1.58;;
12302;SDS011;6214;48.012;7.862;2022-09-02T16:22:36;4.18;;;1.17;;
12302;SDS011;6214;48.012;7.862;2022-09-02T16:25:02;5.60;;;1.27;;
12302;SDS011;6214;48.012;7.862;2022-09-02T16:27:30;4.03;;;1.30;;
12302;SDS011;6214;48.012;7.862;2022-09-02T16:30:26;4.57;;;1.30;;
12302;SDS011;6214;48.012;7.862;2022-09-02T16:32:55;4.30;;;1.20;;
12302;SDS011;6214;48.012;7.862;2022-09-02T16:35:22;4.18;;;1.35;;
12302;SDS011;6214;48.012;7.862;2022-09-02T16:37:49;5.20;;;1.40;;
12302;SDS011;6214;48.012;7.862;2022-09-02T16:40:16;4.95;;;1.20;;
12302;SDS011;6214;48.012;7.862;2022-09-02T16:42:47;4.30;;;1.30;;
12302;SDS011;6214;48.012;7.862;2022-09-02T16:45:14;4.30;;;1.27;;
12302;SDS011;6214;48.012;7.862;2022-09-02T16:47:41;4.03;;;1.23;;
12302;SDS011;6214;48.012;7.862;2022-09-02T16:50:08;6.10;;;1.40;;
12302;SDS011;6214;48.012;7.862;2022-09-02T16:52:37;4.60;;;1.50;;
12302;SDS011;6214;48.012;7.862;2022-09-02T16:55:06;3.80;;;1.30;;
12302;SDS011;6214;48.012;7.862;2022-09-02T16:57:33;5.60;;;1.50;;
12302;SDS011;6214;48.012;7.862;2022-09-02T17:00:00;4.03;;;1.40;;
12302;SDS011;6214;48.012;7.862;2022-09-02T17:02:27;4.75;;;1.50;;
12302;SDS011;6214;48.012;7.862;2022-09-02T17:04:55;3.90;;;1.40;;
12302;SDS011;6214;48.012;7.862;2022-09-02T17:07:22;4.50;;;1.20;;
12302;SDS011;6214;48.012;7.862;2022-09-02T17:09:49;4.00;;;1.40;;
12302;SDS011;6214;48.012;7.862;2022-09-02T17:12:16;3.70;;;1.20;;
12302;SDS011;6214;48.012;7.862;2022-09-02T17:14:43;5.40;;;1.45;;
12302;SDS011;6214;48.012;7.862;2022-09-02T17:17:10;4.10;;;1.30;;
12302;SDS011;6214;48.012;7.862;2022-09-02T17:19:40;4.75;;;1.20;;
12302;SDS011;6214;48.012;7.862;2022-09-02T17:22:07;3.45;;;1.10;;
12302;SDS011;6214;48.012;7.862;2022-09-02T17:24:34;3.80;;;1.20;;
12302;SDS011;6214;48.012;7.862;2022-09-02T17:27:00;4.78;;;1.20;;
12302;SDS011;6214;48.012;7.862;2022-09-02T17:29:28;5.18;;;1.40;;
12302;SDS011;6214;48.012;7.862;2022-09-02T17:32:16;4.47;;;1.20;;
12302;SDS011;6214;48.012;7.862;2022-09-02T17:34:44;4.00;;;1.30;;
12302;SDS011;6214;48.012;7.862;2022-09-02T17:37:11;4.10;;;1.30;;
12302;SDS011;6214;48.012;7.862;2022-09-02T17:39:38;3.92;;;1.10;;
12302;SDS011;6214;48.012;7.862;2022-09-02T17:42:05;4.93;;;1.10;;
12302;SDS011;6214;48.012;7.862;2022-09-02T17:44:35;4.10;;;1.10;;
12302;SDS011;6214;48.012;7.862;2022-09-02T17:47:06;4.20;;;1.00;;
12302;SDS011;6214;48.012;7.862;2022-09-02T17:49:35;3.80;;;1.00;;
12302;SDS011;6214;48.012;7.862;2022-09-02T17:52:04;4.70;;;1.17;;
12302;SDS011;6214;48.012;7.862;2022-09-02T17:54:34;3.80;;;1.10;;
12302;SDS011;6214;48.012;7.862;2022-09-02T18:11:04;4.60;;;1.40;;